sensor_id;sensor_type;location;lat;lon;timestamp;P1;durP1;ratioP1;P2;durP2;ratioP2
23594;SDS011;11975;47.674;9.472;2023-05-14T00:02:15;22.63;;;21.33;;
23594;SDS011;11975;47.674;9.472;2023-05-14T00:04:41;22.88;;;21.48;;
23594;SDS011;11975;47.674;9.472;2023-05-14T00:07:07;22.65;;;21.25;;
23594;SDS011;11975;47.674;9.472;2023-05-14T00:09:33;22.88;;;21.58;;
23594;SDS011;11975;47.674;9.472;2023-05-14T00:11:59;22.55;;;21.25;;
23594;SDS011;11975;47.674;9.472;2023-05-14T00:14:25;22.30;;;21.05;;
23594;SDS011;11975;47.674;9.472;2023-05-14T00:16:51;22.58;;;21.30;;
23594;SDS011;11975;47.674;9.472;2023-05-14T00:19:17;22.77;;;21.48;;
23594;SDS011;11975;47.674;9.472;2023-05-14T00:21:43;23.35;;;22.05;;
23594;SDS011;11975;47.674;9.472;2023-05-14T00:24:09;23.88;;;22.48;;
23594;SDS011;11975;47.674;9.472;2023-05-14T00:26:35;23.45;;;22.15;;
23594;SDS011;11975;47.674;9.472;2023-05-14T00:29:01;23.35;;;22.05;;
23594;SDS011;11975;47.674;9.472;2023-05-14T00:31:27;22.90;;;21.60;;
23594;SDS011;11975;47.674;9.472;2023-05-14T00:33:53;23.95;;;22.55;;
23594;SDS011;11975;47.674;9.472;2023-05-14T00:36:19;23.23;;;21.92;;
23594;SDS011;11975;47.674;9.472;2023-05-14T00:38:45;23.70;;;22.30;;
23594;SDS011;11975;47.674;9.472;2023-05-14T00:41:11;24.50;;;23.05;;
23594;SDS011;11975;47.674;9.472;2023-05-14T00:43:37;23.33;;;22.02;;
23594;SDS011;11975;47.674;9.472;2023-05-14T00:46:03;23.85;;;22.45;;
23594;SDS011;11975;47.674;9.472;2023-05-14T00:48:29;23.63;;;22.33;;
23594;SDS011;11975;47.674;9.472;2023-05-14T00:50:55;24.13;;;22.70;;
23594;SDS011;11975;47.674;9.472;2023-05-14T00:53:21;24.33;;;22.92;;
23594;SDS011;11975;47.674;9.472;2023-05-14T00:55:47;23.35;;;22.05;;
23594;SDS011;11975;47.674;9.472;2023-05-14T00:58:14;23.38;;;21.98;;
23594;SDS011;11975;47.674;9.472;2023-05-14T01:00:40;24.00;;;22.60;;
23594;SDS011;11975;47.674;9.472;2023-05-14T01:03:06;23.23;;;21.92;;
23594;SDS011;11975;47.674;9.472;2023-05-14T01:05:35;23.73;;;22.38;;
23594;SDS011;11975;47.674;9.472;2023-05-14T01:08:08;23.67;;;22.27;;
23594;SDS011;11975;47.674;9.472;2023-05-14T01:10:44;23.45;;;22.05;;
23594;SDS011;11975;47.674;9.472;2023-05-14T01:16:13;23.20;;;21.90;;
23594;SDS011;11975;47.674;9.472;2023-05-14T01:18:42;23.30;;;22.00;;
23594;SDS011;11975;47.674;9.472;2023-05-14T01:24:06;23.42;;;22.13;;
23594;SDS011;11975;47.674;9.472;2023-05-14T01:26:32;23.55;;;22.08;;
23594;SDS011;11975;47.674;9.472;2023-05-14T01:29:20;23.67;;;22.27;;
23594;SDS011;11975;47.674;9.472;2023-05-14T01:31:46;23.10;;;21.70;;
23594;SDS011;11975;47.674;9.472;2023-05-14T01:34:14;23.33;;;21.98;;
23594;SDS011;11975;47.674;9.472;2023-05-14T01:36:40;23.40;;;22.00;;
23594;SDS011;11975;47.674;9.472;2023-05-14T01:39:07;24.10;;;22.70;;
23594;SDS011;11975;47.674;9.472;2023-05-14T01:41:34;23.98;;;22.58;;
23594;SDS011;11975;47.674;9.472;2023-05-14T01:46:30;22.98;;;21.67;;
23594;SDS011;11975;47.674;9.472;2023-05-14T01:48:56;24.25;;;22.85;;
23594;SDS011;11975;47.674;9.472;2023-05-14T01:51:22;23.65;;;22.25;;
23594;SDS011;11975;47.674;9.472;2023-05-14T01:53:48;23.30;;;22.00;;
23594;SDS011;11975;47.674;9.472;2023-05-14T01:56:14;23.35;;;22.05;;
23594;SDS011;11975;47.674;9.472;2023-05-14T01:58:40;23.73;;;22.35;;
23594;SDS011;11975;47.674;9.472;2023-05-14T02:01:06;24.10;;;22.52;;
23594;SDS011;11975;47.674;9.472;2023-05-14T02:03:32;24.02;;;22.52;;
23594;SDS011;11975;47.674;9.472;2023-05-14T02:05:58;24.05;;;22.67;;
23594;SDS011;11975;47.674;9.472;2023-05-14T02:08:24;24.77;;;23.27;;
23594;SDS011;11975;47.674;9.472;2023-05-14T02:10:49;24.33;;;22.92;;
23594;SDS011;11975;47.674;9.472;2023-05-14T02:13:15;24.38;;;22.98;;
23594;SDS011;11975;47.674;9.472;2023-05-14T02:15:41;24.70;;;23.30;;
23594;SDS011;11975;47.674;9.472;2023-05-14T02:18:07;24.52;;;23.13;;
23594;SDS011;11975;47.674;9.472;2023-05-14T02:20:33;23.88;;;22.50;;
23594;SDS011;11975;47.674;9.472;2023-05-14T02:22:59;23.92;;;22.58;;
23594;SDS011;11975;47.674;9.472;2023-05-14T02:25:25;24.67;;;23.27;;
23594;SDS011;11975;47.674;9.472;2023-05-14T02:27:51;24.25;;;22.85;;
23594;SDS011;11975;47.674;9.472;2023-05-14T02:30:17;24.17;;;22.77;;
23594;SDS011;11975;47.674;9.472;2023-05-14T02:32:43;24.75;;;23.15;;
23594;SDS011;11975;47.674;9.472;2023-05-14T02:35:09;24.60;;;23.20;;
23594;SDS011;11975;47.674;9.472;2023-05-14T02:37:35;24.58;;;23.15;;
23594;SDS011;11975;47.674;9.472;2023-05-14T02:40:01;23.52;;;22.23;;
23594;SDS011;11975;47.674;9.472;2023-05-14T02:42:27;23.58;;;22.27;;
23594;SDS011;11975;47.674;9.472;2023-05-14T02:44:53;24.95;;;23.55;;
23594;SDS011;11975;47.674;9.472;2023-05-14T02:47:19;24.48;;;23.08;;
23594;SDS011;11975;47.674;9.472;2023-05-14T02:49:45;24.50;;;23.10;;
23594;SDS011;11975;47.674;9.472;2023-05-14T02:52:11;24.90;;;23.50;;
23594;SDS011;11975;47.674;9.472;2023-05-14T02:54:36;24.83;;;23.42;;
23594;SDS011;11975;47.674;9.472;2023-05-14T02:57:04;24.75;;;23.35;;
23594;SDS011;11975;47.674;9.472;2023-05-14T02:59:30;25.00;;;23.52;;
23594;SDS011;11975;47.674;9.472;2023-05-14T03:01:56;24.20;;;22.80;;
23594;SDS011;11975;47.674;9.472;2023-05-14T03:04:22;25.27;;;23.50;;
23594;SDS011;11975;47.674;9.472;2023-05-14T03:06:48;24.65;;;23.25;;
23594;SDS011;11975;47.674;9.472;2023-05-14T03:09:14;24.67;;;23.27;;
23594;SDS011;11975;47.674;9.472;2023-05-14T03:11:40;25.20;;;23.77;;
23594;SDS011;11975;47.674;9.472;2023-05-14T03:14:06;24.88;;;23.38;;
23594;SDS011;11975;47.674;9.472;2023-05-14T03:16:32;25.55;;;24.05;;
23594;SDS011;11975;47.674;9.472;2023-05-14T03:18:58;25.10;;;23.60;;
23594;SDS011;11975;47.674;9.472;2023-05-14T03:21:23;24.67;;;23.27;;
23594;SDS011;11975;47.674;9.472;2023-05-14T03:23:51;25.17;;;23.75;;
23594;SDS011;11975;47.674;9.472;2023-05-14T03:26:17;25.05;;;23.65;;
23594;SDS011;11975;47.674;9.472;2023-05-14T03:28:43;25.33;;;23.52;;
23594;SDS011;11975;47.674;9.472;2023-05-14T03:31:09;24.70;;;23.27;;
23594;SDS011;11975;47.674;9.472;2023-05-14T03:33:35;25.25;;;23.75;;
23594;SDS011;11975;47.674;9.472;2023-05-14T03:36:01;25.15;;;23.70;;
23594;SDS011;11975;47.674;9.472;2023-05-14T03:38:27;25.08;;;23.67;;
23594;SDS011;11975;47.674;9.472;2023-05-14T03:40:54;26.13;;;24.45;;
23594;SDS011;11975;47.674;9.472;2023-05-14T03:43:20;24.90;;;23.50;;
23594;SDS011;11975;47.674;9.472;2023-05-14T03:45:46;26.15;;;24.65;;
23594;SDS011;11975;47.674;9.472;2023-05-14T03:48:17;25.13;;;23.73;;
23594;SDS011;11975;47.674;9.472;2023-05-14T03:53:10;24.85;;;23.40;;
23594;SDS011;11975;47.674;9.472;2023-05-14T03:55:36;25.13;;;23.70;;
23594;SDS011;11975;47.674;9.472;2023-05-14T03:58:02;25.13;;;23.73;;
23594;SDS011;11975;47.674;9.472;2023-05-14T04:00:31;25.20;;;23.80;;
23594;SDS011;11975;47.674;9.472;2023-05-14T04:02:57;25.20;;;23.70;;
23594;SDS011;11975;47.674;9.472;2023-05-14T04:05:23;24.77;;;23.38;;
23594;SDS011;11975;47.674;9.472;2023-05-14T04:07:49;26.42;;;24.92;;
23594;SDS011;11975;47.674;9.472;2023-05-14T04:10:17;25.75;;;24.25;;
23594;SDS011;11975;47.674;9.472;2023-05-14T04:12:43;24.58;;;23.17;;
23594;SDS011;11975;47.674;9.472;2023-05-14T04:15:09;25.95;;;24.45;;
23594;SDS011;11975;47.674;9.472;2023-05-14T04:17:35;25.00;;;23.50;;
23594;SDS011;11975;47.674;9.472;2023-05-14T04:20:01;24.13;;;22.73;;
23594;SDS011;11975;47.674;9.472;2023-05-14T04:22:27;24.88;;;23.48;;
23594;SDS011;11975;47.674;9.472;2023-05-14T04:24:53;24.60;;;23.20;;
23594;SDS011;11975;47.674;9.472;2023-05-14T04:27:19;24.60;;;23.20;;
23594;SDS011;11975;47.674;9.472;2023-05-14T04:29:48;24.98;;;23.58;;
23594;SDS011;11975;47.674;9.472;2023-05-14T04:32:15;25.13;;;23.73;;
23594;SDS011;11975;47.674;9.472;2023-05-14T04:34:41;25.35;;;23.85;;
23594;SDS011;11975;47.674;9.472;2023-05-14T04:37:07;25.20;;;23.80;;
23594;SDS011;11975;47.674;9.472;2023-05-14T04:39:33;25.70;;;24.20;;
23594;SDS011;11975;47.674;9.472;2023-05-14T04:41:59;25.38;;;23.88;;
23594;SDS011;11975;47.674;9.472;2023-05-14T04:44:25;25.23;;;23.73;;
23594;SDS011;11975;47.674;9.472;2023-05-14T04:46:51;26.02;;;24.52;;
23594;SDS011;11975;47.674;9.472;2023-05-14T04:49:17;24.85;;;23.45;;
23594;SDS011;11975;47.674;9.472;2023-05-14T04:51:43;25.55;;;23.95;;
23594;SDS011;11975;47.674;9.472;2023-05-14T04:54:09;24.67;;;23.27;;
23594;SDS011;11975;47.674;9.472;2023-05-14T04:56:35;24.65;;;23.25;;
23594;SDS011;11975;47.674;9.472;2023-05-14T04:59:01;25.05;;;23.65;;
23594;SDS011;11975;47.674;9.472;2023-05-14T05:01:26;24.63;;;23.23;;
23594;SDS011;11975;47.674;9.472;2023-05-14T05:03:52;25.13;;;23.63;;
23594;SDS011;11975;47.674;9.472;2023-05-14T05:06:19;25.58;;;24.08;;
23594;SDS011;11975;47.674;9.472;2023-05-14T05:08:45;26.58;;;24.98;;
23594;SDS011;11975;47.674;9.472;2023-05-14T05:11:11;25.15;;;23.75;;
23594;SDS011;11975;47.674;9.472;2023-05-14T05:13:37;25.42;;;23.70;;
23594;SDS011;11975;47.674;9.472;2023-05-14T05:16:03;24.40;;;23.00;;
23594;SDS011;11975;47.674;9.472;2023-05-14T05:18:29;24.55;;;23.15;;
23594;SDS011;11975;47.674;9.472;2023-05-14T05:20:55;23.85;;;22.55;;
23594;SDS011;11975;47.674;9.472;2023-05-14T05:23:21;24.25;;;22.85;;
23594;SDS011;11975;47.674;9.472;2023-05-14T05:25:47;25.20;;;23.80;;
23594;SDS011;11975;47.674;9.472;2023-05-14T05:28:14;25.40;;;23.90;;
23594;SDS011;11975;47.674;9.472;2023-05-14T05:30:40;25.05;;;23.65;;
23594;SDS011;11975;47.674;9.472;2023-05-14T05:33:06;24.65;;;23.25;;
23594;SDS011;11975;47.674;9.472;2023-05-14T05:35:32;25.73;;;24.13;;
23594;SDS011;11975;47.674;9.472;2023-05-14T05:37:58;24.67;;;23.27;;
23594;SDS011;11975;47.674;9.472;2023-05-14T05:40:24;25.05;;;23.65;;
23594;SDS011;11975;47.674;9.472;2023-05-14T05:42:50;25.38;;;23.88;;
23594;SDS011;11975;47.674;9.472;2023-05-14T05:45:16;24.98;;;23.55;;
23594;SDS011;11975;47.674;9.472;2023-05-14T05:47:42;24.45;;;23.05;;
23594;SDS011;11975;47.674;9.472;2023-05-14T05:50:08;25.02;;;23.52;;
23594;SDS011;11975;47.674;9.472;2023-05-14T05:52:35;24.85;;;23.45;;
23594;SDS011;11975;47.674;9.472;2023-05-14T05:55:01;25.38;;;23.95;;
23594;SDS011;11975;47.674;9.472;2023-05-14T05:57:27;25.17;;;23.75;;
23594;SDS011;11975;47.674;9.472;2023-05-14T05:59:53;25.17;;;23.70;;
23594;SDS011;11975;47.674;9.472;2023-05-14T06:02:19;24.73;;;23.33;;
23594;SDS011;11975;47.674;9.472;2023-05-14T06:04:45;25.30;;;23.90;;
23594;SDS011;11975;47.674;9.472;2023-05-14T06:07:11;25.40;;;23.98;;
23594;SDS011;11975;47.674;9.472;2023-05-14T06:09:37;26.48;;;24.88;;
23594;SDS011;11975;47.674;9.472;2023-05-14T06:12:03;25.05;;;23.60;;
23594;SDS011;11975;47.674;9.472;2023-05-14T06:14:29;26.43;;;24.93;;
23594;SDS011;11975;47.674;9.472;2023-05-14T06:16:55;26.80;;;25.30;;
23594;SDS011;11975;47.674;9.472;2023-05-14T06:19:21;26.00;;;24.50;;
23594;SDS011;11975;47.674;9.472;2023-05-14T06:21:47;24.27;;;22.88;;
23594;SDS011;11975;47.674;9.472;2023-05-14T06:24:13;25.45;;;23.85;;
23594;SDS011;11975;47.674;9.472;2023-05-14T06:26:39;24.10;;;22.70;;
23594;SDS011;11975;47.674;9.472;2023-05-14T06:29:05;25.00;;;23.60;;
23594;SDS011;11975;47.674;9.472;2023-05-14T06:31:31;24.65;;;23.25;;
23594;SDS011;11975;47.674;9.472;2023-05-14T06:33:57;24.20;;;22.80;;
23594;SDS011;11975;47.674;9.472;2023-05-14T06:36:23;25.50;;;24.00;;
23594;SDS011;11975;47.674;9.472;2023-05-14T06:38:49;25.48;;;23.98;;
23594;SDS011;11975;47.674;9.472;2023-05-14T06:41:15;24.77;;;23.33;;
23594;SDS011;11975;47.674;9.472;2023-05-14T06:43:41;25.08;;;23.48;;
23594;SDS011;11975;47.674;9.472;2023-05-14T06:46:07;25.40;;;23.90;;
23594;SDS011;11975;47.674;9.472;2023-05-14T06:48:33;24.38;;;22.98;;
23594;SDS011;11975;47.674;9.472;2023-05-14T06:50:59;25.35;;;23.85;;
23594;SDS011;11975;47.674;9.472;2023-05-14T06:53:25;24.63;;;23.23;;
23594;SDS011;11975;47.674;9.472;2023-05-14T06:55:51;24.02;;;22.63;;
23594;SDS011;11975;47.674;9.472;2023-05-14T06:58:17;24.08;;;22.67;;
23594;SDS011;11975;47.674;9.472;2023-05-14T07:00:42;24.80;;;23.40;;
23594;SDS011;11975;47.674;9.472;2023-05-14T07:03:08;25.65;;;24.15;;
23594;SDS011;11975;47.674;9.472;2023-05-14T07:05:34;25.60;;;24.00;;
23594;SDS011;11975;47.674;9.472;2023-05-14T07:08:00;25.08;;;23.58;;
23594;SDS011;11975;47.674;9.472;2023-05-14T07:10:26;24.65;;;23.25;;
23594;SDS011;11975;47.674;9.472;2023-05-14T07:12:52;24.60;;;23.17;;
23594;SDS011;11975;47.674;9.472;2023-05-14T07:15:18;26.63;;;24.98;;
23594;SDS011;11975;47.674;9.472;2023-05-14T07:17:44;25.70;;;24.20;;
23594;SDS011;11975;47.674;9.472;2023-05-14T07:20:10;25.50;;;24.02;;
23594;SDS011;11975;47.674;9.472;2023-05-14T07:22:36;25.07;;;23.67;;
23594;SDS011;11975;47.674;9.472;2023-05-14T07:25:02;27.33;;;24.23;;
23594;SDS011;11975;47.674;9.472;2023-05-14T07:27:28;25.48;;;23.88;;
23594;SDS011;11975;47.674;9.472;2023-05-14T07:29:54;25.80;;;24.23;;
23594;SDS011;11975;47.674;9.472;2023-05-14T07:32:20;25.70;;;24.20;;
23594;SDS011;11975;47.674;9.472;2023-05-14T07:34:46;25.63;;;24.13;;
23594;SDS011;11975;47.674;9.472;2023-05-14T07:37:13;26.70;;;25.10;;
23594;SDS011;11975;47.674;9.472;2023-05-14T07:39:39;25.20;;;23.77;;
23594;SDS011;11975;47.674;9.472;2023-05-14T07:42:06;26.95;;;25.25;;
23594;SDS011;11975;47.674;9.472;2023-05-14T07:44:32;25.52;;;24.02;;
23594;SDS011;11975;47.674;9.472;2023-05-14T07:46:58;25.83;;;24.33;;
23594;SDS011;11975;47.674;9.472;2023-05-14T07:49:24;26.15;;;24.65;;
23594;SDS011;11975;47.674;9.472;2023-05-14T07:51:50;25.85;;;24.10;;
23594;SDS011;11975;47.674;9.472;2023-05-14T07:54:15;25.38;;;23.92;;
23594;SDS011;11975;47.674;9.472;2023-05-14T07:56:41;24.40;;;23.00;;
23594;SDS011;11975;47.674;9.472;2023-05-14T07:59:07;25.88;;;24.38;;
23594;SDS011;11975;47.674;9.472;2023-05-14T08:01:33;24.15;;;22.75;;
23594;SDS011;11975;47.674;9.472;2023-05-14T08:03:59;24.20;;;22.80;;
23594;SDS011;11975;47.674;9.472;2023-05-14T08:06:25;24.90;;;23.40;;
23594;SDS011;11975;47.674;9.472;2023-05-14T08:08:52;23.38;;;22.08;;
23594;SDS011;11975;47.674;9.472;2023-05-14T08:11:18;23.70;;;22.35;;
23594;SDS011;11975;47.674;9.472;2023-05-14T08:13:44;23.55;;;22.20;;
23594;SDS011;11975;47.674;9.472;2023-05-14T08:16:10;23.00;;;21.70;;
23594;SDS011;11975;47.674;9.472;2023-05-14T08:18:35;24.30;;;22.90;;
23594;SDS011;11975;47.674;9.472;2023-05-14T08:21:01;24.50;;;23.00;;
23594;SDS011;11975;47.674;9.472;2023-05-14T08:23:27;25.23;;;23.77;;
23594;SDS011;11975;47.674;9.472;2023-05-14T08:25:53;25.27;;;23.67;;
23594;SDS011;11975;47.674;9.472;2023-05-14T08:28:19;25.58;;;24.05;;
23594;SDS011;11975;47.674;9.472;2023-05-14T08:30:45;26.48;;;24.90;;
23594;SDS011;11975;47.674;9.472;2023-05-14T08:33:11;25.73;;;24.23;;
23594;SDS011;11975;47.674;9.472;2023-05-14T08:35:37;24.52;;;23.13;;
23594;SDS011;11975;47.674;9.472;2023-05-14T08:38:03;23.13;;;21.83;;
23594;SDS011;11975;47.674;9.472;2023-05-14T08:40:29;24.15;;;22.75;;
23594;SDS011;11975;47.674;9.472;2023-05-14T08:42:55;22.80;;;21.40;;
23594;SDS011;11975;47.674;9.472;2023-05-14T08:45:23;22.25;;;20.95;;
23594;SDS011;11975;47.674;9.472;2023-05-14T08:47:53;21.60;;;20.35;;
23594;SDS011;11975;47.674;9.472;2023-05-14T08:50:20;21.58;;;20.38;;
23594;SDS011;11975;47.674;9.472;2023-05-14T08:52:46;21.27;;;20.08;;
23594;SDS011;11975;47.674;9.472;2023-05-14T08:55:13;22.50;;;21.00;;
23594;SDS011;11975;47.674;9.472;2023-05-14T08:57:39;21.70;;;20.40;;
23594;SDS011;11975;47.674;9.472;2023-05-14T09:00:05;22.10;;;20.77;;
23594;SDS011;11975;47.674;9.472;2023-05-14T09:02:40;22.83;;;21.45;;
23594;SDS011;11975;47.674;9.472;2023-05-14T09:05:07;22.23;;;20.92;;
23594;SDS011;11975;47.674;9.472;2023-05-14T09:07:33;21.95;;;20.75;;
23594;SDS011;11975;47.674;9.472;2023-05-14T09:10:00;22.63;;;21.23;;
23594;SDS011;11975;47.674;9.472;2023-05-14T09:12:26;23.00;;;21.60;;
23594;SDS011;11975;47.674;9.472;2023-05-14T09:14:52;23.10;;;21.80;;
23594;SDS011;11975;47.674;9.472;2023-05-14T09:17:19;22.50;;;21.20;;
23594;SDS011;11975;47.674;9.472;2023-05-14T09:19:45;22.92;;;21.63;;
23594;SDS011;11975;47.674;9.472;2023-05-14T09:22:17;23.58;;;22.17;;
23594;SDS011;11975;47.674;9.472;2023-05-14T09:24:43;24.35;;;22.83;;
23594;SDS011;11975;47.674;9.472;2023-05-14T09:27:17;23.55;;;22.25;;
23594;SDS011;11975;47.674;9.472;2023-05-14T09:29:46;24.08;;;22.58;;
23594;SDS011;11975;47.674;9.472;2023-05-14T09:32:12;23.47;;;22.13;;
23594;SDS011;11975;47.674;9.472;2023-05-14T09:34:38;23.60;;;22.25;;
23594;SDS011;11975;47.674;9.472;2023-05-14T09:37:06;23.00;;;21.70;;
23594;SDS011;11975;47.674;9.472;2023-05-14T09:39:33;23.02;;;21.73;;
23594;SDS011;11975;47.674;9.472;2023-05-14T09:42:03;23.05;;;21.75;;
23594;SDS011;11975;47.674;9.472;2023-05-14T09:44:29;23.92;;;22.52;;
23594;SDS011;11975;47.674;9.472;2023-05-14T09:46:56;23.38;;;22.08;;
23594;SDS011;11975;47.674;9.472;2023-05-14T09:49:22;23.48;;;22.10;;
23594;SDS011;11975;47.674;9.472;2023-05-14T09:51:48;22.95;;;21.65;;
23594;SDS011;11975;47.674;9.472;2023-05-14T09:54:14;22.77;;;21.48;;
23594;SDS011;11975;47.674;9.472;2023-05-14T09:56:41;22.02;;;20.83;;
23594;SDS011;11975;47.674;9.472;2023-05-14T09:59:07;21.75;;;20.52;;
23594;SDS011;11975;47.674;9.472;2023-05-14T10:01:33;21.40;;;20.20;;
23594;SDS011;11975;47.674;9.472;2023-05-14T10:04:01;21.67;;;20.37;;
23594;SDS011;11975;47.674;9.472;2023-05-14T10:06:29;21.83;;;20.55;;
23594;SDS011;11975;47.674;9.472;2023-05-14T10:09:07;21.10;;;19.90;;
23594;SDS011;11975;47.674;9.472;2023-05-14T10:11:36;20.63;;;19.42;;
23594;SDS011;11975;47.674;9.472;2023-05-14T10:14:07;20.58;;;19.38;;
23594;SDS011;11975;47.674;9.472;2023-05-14T10:16:38;20.65;;;19.45;;
23594;SDS011;11975;47.674;9.472;2023-05-14T10:19:10;20.35;;;19.15;;
23594;SDS011;11975;47.674;9.472;2023-05-14T10:21:37;20.30;;;19.13;;
23594;SDS011;11975;47.674;9.472;2023-05-14T10:24:05;19.90;;;18.80;;
23594;SDS011;11975;47.674;9.472;2023-05-14T10:29:02;19.23;;;18.13;;
23594;SDS011;11975;47.674;9.472;2023-05-14T10:31:48;19.58;;;18.48;;
23594;SDS011;11975;47.674;9.472;2023-05-14T10:34:30;19.35;;;18.25;;
23594;SDS011;11975;47.674;9.472;2023-05-14T10:37:02;19.67;;;18.58;;
23594;SDS011;11975;47.674;9.472;2023-05-14T10:39:39;20.20;;;18.70;;
23594;SDS011;11975;47.674;9.472;2023-05-14T10:42:06;19.70;;;18.50;;
23594;SDS011;11975;47.674;9.472;2023-05-14T10:44:34;18.58;;;17.58;;
23594;SDS011;11975;47.674;9.472;2023-05-14T10:47:00;19.35;;;18.25;;
23594;SDS011;11975;47.674;9.472;2023-05-14T10:49:27;20.13;;;18.92;;
23594;SDS011;11975;47.674;9.472;2023-05-14T10:51:53;19.35;;;18.20;;
23594;SDS011;11975;47.674;9.472;2023-05-14T10:54:19;18.88;;;17.77;;
23594;SDS011;11975;47.674;9.472;2023-05-14T10:56:48;18.38;;;17.38;;
23594;SDS011;11975;47.674;9.472;2023-05-14T10:59:17;20.55;;;19.35;;
23594;SDS011;11975;47.674;9.472;2023-05-14T11:01:43;19.88;;;18.77;;
23594;SDS011;11975;47.674;9.472;2023-05-14T11:04:16;19.73;;;18.63;;
23594;SDS011;11975;47.674;9.472;2023-05-14T11:06:44;19.95;;;18.83;;
23594;SDS011;11975;47.674;9.472;2023-05-14T11:09:14;19.75;;;18.65;;
23594;SDS011;11975;47.674;9.472;2023-05-14T11:11:42;18.48;;;17.48;;
23594;SDS011;11975;47.674;9.472;2023-05-14T11:14:08;19.88;;;18.67;;
23594;SDS011;11975;47.674;9.472;2023-05-14T11:16:34;19.20;;;18.00;;
23594;SDS011;11975;47.674;9.472;2023-05-14T11:19:01;19.90;;;18.37;;
23594;SDS011;11975;47.674;9.472;2023-05-14T11:21:28;19.25;;;18.15;;
23594;SDS011;11975;47.674;9.472;2023-05-14T11:23:55;20.27;;;19.02;;
23594;SDS011;11975;47.674;9.472;2023-05-14T11:26:22;19.00;;;17.90;;
23594;SDS011;11975;47.674;9.472;2023-05-14T11:31:14;19.87;;;18.77;;
23594;SDS011;11975;47.674;9.472;2023-05-14T11:33:40;18.85;;;17.75;;
23594;SDS011;11975;47.674;9.472;2023-05-14T11:36:06;19.20;;;18.10;;
23594;SDS011;11975;47.674;9.472;2023-05-14T11:38:32;19.38;;;18.27;;
23594;SDS011;11975;47.674;9.472;2023-05-14T11:40:58;18.92;;;17.83;;
23594;SDS011;11975;47.674;9.472;2023-05-14T11:43:24;19.67;;;18.58;;
23594;SDS011;11975;47.674;9.472;2023-05-14T11:45:53;19.85;;;18.73;;
23594;SDS011;11975;47.674;9.472;2023-05-14T11:48:20;18.92;;;17.73;;
23594;SDS011;11975;47.674;9.472;2023-05-14T11:55:52;18.50;;;17.50;;
23594;SDS011;11975;47.674;9.472;2023-05-14T11:58:24;19.08;;;17.98;;
23594;SDS011;11975;47.674;9.472;2023-05-14T12:00:51;20.50;;;19.20;;
23594;SDS011;11975;47.674;9.472;2023-05-14T12:03:18;19.02;;;17.92;;
23594;SDS011;11975;47.674;9.472;2023-05-14T12:05:57;19.00;;;17.90;;
23594;SDS011;11975;47.674;9.472;2023-05-14T12:08:27;18.33;;;17.33;;
23594;SDS011;11975;47.674;9.472;2023-05-14T12:10:54;19.00;;;17.90;;
23594;SDS011;11975;47.674;9.472;2023-05-14T12:13:25;19.35;;;18.23;;
23594;SDS011;11975;47.674;9.472;2023-05-14T12:15:56;18.17;;;17.17;;
23594;SDS011;11975;47.674;9.472;2023-05-14T12:18:27;19.35;;;18.25;;
23594;SDS011;11975;47.674;9.472;2023-05-14T12:20:54;18.80;;;17.70;;
23594;SDS011;11975;47.674;9.472;2023-05-14T12:23:24;19.60;;;18.50;;
23594;SDS011;11975;47.674;9.472;2023-05-14T12:25:51;18.92;;;17.83;;
23594;SDS011;11975;47.674;9.472;2023-05-14T12:28:17;18.57;;;17.57;;
23594;SDS011;11975;47.674;9.472;2023-05-14T12:30:44;19.30;;;18.20;;
23594;SDS011;11975;47.674;9.472;2023-05-14T12:35:37;19.27;;;18.17;;
23594;SDS011;11975;47.674;9.472;2023-05-14T12:38:03;19.58;;;18.45;;
23594;SDS011;11975;47.674;9.472;2023-05-14T12:40:29;19.73;;;18.52;;
23594;SDS011;11975;47.674;9.472;2023-05-14T12:42:55;17.92;;;16.92;;
23594;SDS011;11975;47.674;9.472;2023-05-14T12:45:21;18.73;;;17.63;;
23594;SDS011;11975;47.674;9.472;2023-05-14T12:47:47;18.38;;;17.38;;
23594;SDS011;11975;47.674;9.472;2023-05-14T12:50:13;19.08;;;17.98;;
23594;SDS011;11975;47.674;9.472;2023-05-14T12:52:39;19.05;;;17.95;;
23594;SDS011;11975;47.674;9.472;2023-05-14T12:55:08;19.02;;;17.92;;
23594;SDS011;11975;47.674;9.472;2023-05-14T12:57:34;18.92;;;17.83;;
23594;SDS011;11975;47.674;9.472;2023-05-14T13:00:00;19.77;;;18.60;;
23594;SDS011;11975;47.674;9.472;2023-05-14T13:02:26;18.00;;;17.00;;
23594;SDS011;11975;47.674;9.472;2023-05-14T13:04:52;18.70;;;17.70;;
23594;SDS011;11975;47.674;9.472;2023-05-14T13:07:18;18.00;;;17.00;;
23594;SDS011;11975;47.674;9.472;2023-05-14T13:09:44;18.08;;;17.08;;
23594;SDS011;11975;47.674;9.472;2023-05-14T13:12:10;19.45;;;18.35;;
23594;SDS011;11975;47.674;9.472;2023-05-14T13:14:36;19.02;;;17.92;;
23594;SDS011;11975;47.674;9.472;2023-05-14T13:17:02;18.67;;;17.58;;
23594;SDS011;11975;47.674;9.472;2023-05-14T13:19:29;19.13;;;18.02;;
23594;SDS011;11975;47.674;9.472;2023-05-14T13:21:55;18.20;;;17.20;;
23594;SDS011;11975;47.674;9.472;2023-05-14T13:24:21;18.58;;;17.58;;
23594;SDS011;11975;47.674;9.472;2023-05-14T13:26:49;18.33;;;17.33;;
23594;SDS011;11975;47.674;9.472;2023-05-14T13:29:15;18.65;;;17.55;;
23594;SDS011;11975;47.674;9.472;2023-05-14T13:31:41;18.42;;;17.42;;
23594;SDS011;11975;47.674;9.472;2023-05-14T13:34:07;18.83;;;17.83;;
23594;SDS011;11975;47.674;9.472;2023-05-14T13:36:34;18.25;;;17.25;;
23594;SDS011;11975;47.674;9.472;2023-05-14T13:39:07;18.65;;;17.65;;
23594;SDS011;11975;47.674;9.472;2023-05-14T13:41:32;19.13;;;18.02;;
23594;SDS011;11975;47.674;9.472;2023-05-14T13:44:02;18.45;;;17.35;;
23594;SDS011;11975;47.674;9.472;2023-05-14T13:46:28;18.73;;;17.73;;
23594;SDS011;11975;47.674;9.472;2023-05-14T13:48:54;19.17;;;18.08;;
23594;SDS011;11975;47.674;9.472;2023-05-14T13:51:21;17.98;;;16.98;;
23594;SDS011;11975;47.674;9.472;2023-05-14T13:53:47;18.00;;;17.00;;
23594;SDS011;11975;47.674;9.472;2023-05-14T13:56:13;18.15;;;17.15;;
23594;SDS011;11975;47.674;9.472;2023-05-14T13:58:39;18.23;;;17.23;;
23594;SDS011;11975;47.674;9.472;2023-05-14T14:01:05;17.95;;;16.95;;
23594;SDS011;11975;47.674;9.472;2023-05-14T14:03:31;18.60;;;17.60;;
23594;SDS011;11975;47.674;9.472;2023-05-14T14:05:57;18.95;;;17.85;;
23594;SDS011;11975;47.674;9.472;2023-05-14T14:08:23;18.85;;;17.75;;
23594;SDS011;11975;47.674;9.472;2023-05-14T14:10:49;18.40;;;17.38;;
23594;SDS011;11975;47.674;9.472;2023-05-14T14:13:15;19.20;;;18.10;;
23594;SDS011;11975;47.674;9.472;2023-05-14T14:15:41;18.30;;;17.30;;
23594;SDS011;11975;47.674;9.472;2023-05-14T14:18:08;19.90;;;17.90;;
23594;SDS011;11975;47.674;9.472;2023-05-14T14:20:33;18.88;;;17.77;;
23594;SDS011;11975;47.674;9.472;2023-05-14T14:23:00;18.35;;;17.35;;
23594;SDS011;11975;47.674;9.472;2023-05-14T14:25:26;18.15;;;17.15;;
23594;SDS011;11975;47.674;9.472;2023-05-14T14:27:51;18.25;;;17.25;;
23594;SDS011;11975;47.674;9.472;2023-05-14T14:30:17;18.67;;;17.58;;
23594;SDS011;11975;47.674;9.472;2023-05-14T14:32:44;17.80;;;16.80;;
23594;SDS011;11975;47.674;9.472;2023-05-14T14:35:11;18.25;;;17.25;;
23594;SDS011;11975;47.674;9.472;2023-05-14T14:37:38;18.70;;;17.70;;
23594;SDS011;11975;47.674;9.472;2023-05-14T14:40:06;19.00;;;17.90;;
23594;SDS011;11975;47.674;9.472;2023-05-14T14:42:33;18.20;;;17.20;;